Time;durP1;ratioP1;P1;durP2;ratioP2;P2;SDS_P1;SDS_P2;PMS_P1;PMS_P2;Temp;Humidity;BMP_temperature;BMP_pressure;BME280_temperature;BME280_humidity;BME280_pressure;Samples;Min_cycle;Max_cycle;Signal;HPM_P1;HPM_P2
2023/06/29 00:02:10;;;;;;;;;28.67;26.67;;;;;;;;5097993;28;28448;-83
2023/06/29 00:04:35;;;;;;;;;29.33;27.00;;;;;;;;5098777;27;28344;-83
2023/06/29 00:07:02;;;;;;;;;26.00;24.67;;;;;;;;5098873;27;28426;-83
2023/06/29 00:09:28;;;;;;;;;28.33;25.67;;;;;;;;5096884;28;28488;-83
2023/06/29 00:11:54;;;;;;;;;23.67;23.00;;;;;;;;5098496;27;28359;-83
2023/06/29 00:14:19;;;;;;;;;28.33;27.00;;;;;;;;5098969;27;28294;-83
2023/06/29 00:16:44;;;;;;;;;24.33;23.67;;;;;;;;5098742;27;28292;-83
2023/06/29 00:19:11;;;;;;;;;29.67;28.00;;;;;;;;5098655;28;28378;-83
2023/06/29 00:21:36;;;;;;;;;26.33;23.00;;;;;;;;5098649;27;28383;-83
2023/06/29 00:24:02;;;;;;;;;29.33;27.67;;;;;;;;5097975;27;28345;-83
2023/06/29 00:26:28;;;;;;;;;26.33;25.67;;;;;;;;5098613;27;28316;-83
2023/06/29 00:28:54;;;;;;;;;31.67;30.00;;;;;;;;5096982;27;30934;-83
2023/06/29 00:31:22;;;;;;;;;27.00;26.00;;;;;;;;5098343;28;28365;-83
2023/06/29 00:33:47;;;;;;;;;24.33;24.33;;;;;;;;5098412;28;28308;-83
2023/06/29 00:36:12;;;;;;;;;18.00;17.67;;;;;;;;5098363;28;28246;-83
2023/06/29 00:38:37;;;;;;;;;30.00;27.33;;;;;;;;5097341;27;28580;-83
2023/06/29 00:41:03;;;;;;;;;29.67;28.00;;;;;;;;5096779;28;29314;-83
2023/06/29 00:43:28;;;;;;;;;25.67;25.67;;;;;;;;5098247;27;28490;-83
2023/06/29 00:45:53;;;;;;;;;33.00;30.00;;;;;;;;5098138;27;28503;-83
2023/06/29 00:48:19;;;;;;;;;28.67;25.33;;;;;;;;5098029;28;28216;-83
2023/06/29 00:50:44;;;;;;;;;26.67;25.33;;;;;;;;5096587;28;29346;-83
2023/06/29 00:53:09;;;;;;;;;29.00;28.67;;;;;;;;5097896;27;28272;-83
2023/06/29 00:55:35;;;;;;;;;29.67;27.00;;;;;;;;5097798;27;28572;-83
2023/06/29 00:58:01;;;;;;;;;29.67;28.33;;;;;;;;5097739;27;29189;-83
2023/06/29 01:00:26;;;;;;;;;29.00;26.33;;;;;;;;5097744;28;28376;-83
2023/06/29 01:02:51;;;;;;;;;30.33;28.33;;;;;;;;5097941;27;28651;-83
2023/06/29 01:05:17;;;;;;;;;23.67;23.67;;;;;;;;5097715;27;28407;-83
2023/06/29 01:07:49;;;;;;;;;24.50;23.25;;;;;;;;5097832;27;29272;-83
2023/06/29 01:10:17;;;;;;;;;29.50;28.50;;;;;;;;5097004;27;28329;-83
2023/06/29 01:12:42;;;;;;;;;37.25;33.25;;;;;;;;5097161;27;28340;-83
2023/06/29 01:15:09;;;;;;;;;35.00;32.33;;;;;;;;5097016;28;28341;-83
2023/06/29 01:17:36;;;;;;;;;26.67;24.67;;;;;;;;5097437;27;28750;-83
2023/06/29 01:20:02;;;;;;;;;34.50;32.50;;;;;;;;5097579;27;28262;-83
2023/06/29 01:22:29;;;;;;;;;43.25;35.75;;;;;;;;5096179;28;28336;-83
2023/06/29 01:24:55;;;;;;;;;31.33;30.00;;;;;;;;5097211;27;28323;-83
2023/06/29 01:27:21;;;;;;;;;38.67;35.67;;;;;;;;5097355;27;28286;-83
2023/06/29 01:29:47;;;;;;;;;29.33;28.00;;;;;;;;5097388;27;28356;-83
2023/06/29 01:32:14;;;;;;;;;30.33;29.67;;;;;;;;5097421;27;28411;-83
2023/06/29 01:34:39;;;;;;;;;31.33;31.33;;;;;;;;5097574;27;28506;-83
2023/06/29 01:37:13;;;;;;;;;33.33;31.67;;;;;;;;5097200;28;28460;-83
2023/06/29 01:39:59;;;;;;;;;30.33;29.67;;;;;;;;5096470;28;28489;-83
2023/06/29 01:42:25;;;;;;;;;35.33;32.67;;;;;;;;5096058;28;28385;-83
2023/06/29 01:44:51;;;;;;;;;29.33;28.67;;;;;;;;5097060;27;28444;-83
2023/06/29 01:47:17;;;;;;;;;32.00;32.00;;;;;;;;5097316;27;28479;-83
2023/06/29 01:49:42;;;;;;;;;30.67;29.00;;;;;;;;5096981;27;28241;-83
2023/06/29 01:52:08;;;;;;;;;31.33;31.00;;;;;;;;5097326;27;28489;-83
2023/06/29 01:54:33;;;;;;;;;30.00;30.00;;;;;;;;5096774;27;28304;-83
2023/06/29 01:56:59;;;;;;;;;26.33;24.67;;;;;;;;5097335;27;29593;-83
2023/06/29 01:59:24;;;;;;;;;31.00;29.33;;;;;;;;5096973;28;28363;-83
2023/06/29 02:01:49;;;;;;;;;30.33;29.67;;;;;;;;5097221;27;28491;-83
2023/06/29 02:04:15;;;;;;;;;35.67;32.33;;;;;;;;5096905;28;28698;-83
2023/06/29 02:06:40;;;;;;;;;26.67;26.67;;;;;;;;5097156;28;28265;-83
2023/06/29 02:09:05;;;;;;;;;31.67;31.33;;;;;;;;5096416;28;28498;-83
2023/06/29 02:11:31;;;;;;;;;35.00;30.67;;;;;;;;5097080;28;28253;-83
2023/06/29 02:13:56;;;;;;;;;35.00;33.67;;;;;;;;5096978;28;28355;-83
2023/06/29 02:16:21;;;;;;;;;38.00;33.00;;;;;;;;5097108;28;28517;-83
2023/06/29 02:18:46;;;;;;;;;35.00;32.75;;;;;;;;5096528;28;28312;-83
2023/06/29 02:21:13;;;;;;;;;27.33;27.33;;;;;;;;5097047;27;28383;-83
2023/06/29 02:23:38;;;;;;;;;29.25;29.25;;;;;;;;5096464;27;28399;-83
2023/06/29 02:26:03;;;;;;;;;31.67;31.33;;;;;;;;5099340;27;29534;-83
2023/06/29 02:28:28;;;;;;;;;34.67;33.67;;;;;;;;5100176;27;28349;-83
2023/06/29 02:30:53;;;;;;;;;34.67;33.33;;;;;;;;5100353;27;28314;-83
2023/06/29 02:33:19;;;;;;;;;37.25;33.50;;;;;;;;5100247;27;28353;-83
2023/06/29 02:35:44;;;;;;;;;32.33;30.67;;;;;;;;5100155;28;28403;-83
2023/06/29 02:38:09;;;;;;;;;29.33;29.33;;;;;;;;5099766;27;28506;-83
2023/06/29 02:40:34;;;;;;;;;30.67;30.00;;;;;;;;5098369;28;28406;-83
2023/06/29 02:42:59;;;;;;;;;31.67;29.00;;;;;;;;5100094;28;28386;-83
2023/06/29 02:45:25;;;;;;;;;24.00;24.00;;;;;;;;5098562;28;29688;-83
2023/06/29 02:47:50;;;;;;;;;42.25;34.25;;;;;;;;5100044;27;28350;-83
2023/06/29 02:50:15;;;;;;;;;40.75;36.50;;;;;;;;5099984;27;28326;-83
2023/06/29 02:52:40;;;;;;;;;52.00;39.50;;;;;;;;5100064;28;28313;-83
2023/06/29 02:55:06;;;;;;;;;55.25;46.50;;;;;;;;5099353;27;28371;-83
2023/06/29 02:57:31;;;;;;;;;57.25;45.75;;;;;;;;5098163;28;28577;-83
2023/06/29 02:59:56;;;;;;;;;55.25;45.25;;;;;;;;5100000;27;28262;-83
2023/06/29 03:02:22;;;;;;;;;53.00;42.75;;;;;;;;5098430;28;28247;-83
2023/06/29 03:04:47;;;;;;;;;46.00;37.50;;;;;;;;5098134;28;28471;-83
2023/06/29 03:07:12;;;;;;;;;47.75;39.25;;;;;;;;5099503;27;28353;-83
2023/06/29 03:09:37;;;;;;;;;42.75;36.75;;;;;;;;5099270;27;28382;-83
2023/06/29 03:12:02;;;;;;;;;42.75;39.00;;;;;;;;5099610;27;28651;-83
2023/06/29 03:14:28;;;;;;;;;36.50;33.75;;;;;;;;5099577;27;29383;-83
2023/06/29 03:16:53;;;;;;;;;36.75;34.25;;;;;;;;5097991;28;28460;-83
2023/06/29 03:19:18;;;;;;;;;39.50;36.50;;;;;;;;5099625;27;28420;-83
2023/06/29 03:21:43;;;;;;;;;34.00;29.50;;;;;;;;5098136;28;28274;-83
2023/06/29 03:24:09;;;;;;;;;37.33;34.33;;;;;;;;5098840;28;29393;-83
2023/06/29 03:26:34;;;;;;;;;39.25;36.25;;;;;;;;5099224;27;28304;-83
2023/06/29 03:28:59;;;;;;;;;43.25;37.25;;;;;;;;5099400;27;28332;-83
2023/06/29 03:31:24;;;;;;;;;33.75;33.00;;;;;;;;5099272;27;28311;-83
2023/06/29 03:33:49;;;;;;;;;36.67;34.00;;;;;;;;5099256;28;28300;-83
2023/06/29 03:36:15;;;;;;;;;32.33;32.00;;;;;;;;5098105;28;28323;-83
2023/06/29 03:38:40;;;;;;;;;42.75;38.25;;;;;;;;5098448;28;28266;-83
2023/06/29 03:41:06;;;;;;;;;35.25;32.25;;;;;;;;5099049;28;28232;-83
2023/06/29 03:43:31;;;;;;;;;32.75;31.50;;;;;;;;5098987;28;28325;-83
2023/06/29 03:45:59;;;;;;;;;43.50;37.00;;;;;;;;5097642;28;28946;-83
2023/06/29 03:48:27;;;;;;;;;39.50;35.75;;;;;;;;5098994;27;28399;-83
2023/06/29 03:50:53;;;;;;;;;32.25;32.25;;;;;;;;5099041;27;28266;-83
2023/06/29 03:53:18;;;;;;;;;30.33;30.33;;;;;;;;5098586;27;29678;-83
2023/06/29 03:55:43;;;;;;;;;37.33;34.33;;;;;;;;5098844;27;28305;-83
2023/06/29 03:58:08;;;;;;;;;37.00;33.67;;;;;;;;5097615;28;28416;-83
2023/06/29 04:00:33;;;;;;;;;37.33;34.00;;;;;;;;5098877;27;28254;-83
2023/06/29 04:02:59;;;;;;;;;40.75;36.75;;;;;;;;5098733;28;29474;-83
2023/06/29 04:05:27;;;;;;;;;33.67;33.33;;;;;;;;5098879;27;28238;-83
2023/06/29 04:07:52;;;;;;;;;38.50;35.75;;;;;;;;5098907;27;28357;-83
2023/06/29 04:10:17;;;;;;;;;37.33;33.33;;;;;;;;5098268;28;28321;-83
2023/06/29 04:12:42;;;;;;;;;37.50;35.25;;;;;;;;5098610;28;28391;-83
2023/06/29 04:15:08;;;;;;;;;39.50;35.00;;;;;;;;5098530;27;28470;-83
2023/06/29 04:17:33;;;;;;;;;37.00;35.00;;;;;;;;5098537;27;28383;-83
2023/06/29 04:19:58;;;;;;;;;39.75;35.75;;;;;;;;5098733;27;28472;-83
2023/06/29 04:22:23;;;;;;;;;42.50;35.00;;;;;;;;5098600;27;28513;-83
2023/06/29 04:24:48;;;;;;;;;35.00;33.50;;;;;;;;5097863;27;28404;-83
2023/06/29 04:27:14;;;;;;;;;24.67;24.00;;;;;;;;5098379;27;28356;-83
2023/06/29 04:29:40;;;;;;;;;37.75;35.75;;;;;;;;5098510;28;28732;-83
2023/06/29 04:32:06;;;;;;;;;32.75;29.50;;;;;;;;5098239;28;28361;-83
2023/06/29 04:34:31;;;;;;;;;40.25;36.75;;;;;;;;5098052;28;28368;-84
2023/06/29 04:36:56;;;;;;;;;64.75;51.00;;;;;;;;5098668;27;28356;-83
2023/06/29 04:39:21;;;;;;;;;57.50;46.50;;;;;;;;5096302;28;28424;-83
2023/06/29 04:41:47;;;;;;;;;49.50;40.25;;;;;;;;5098073;28;28351;-83
2023/06/29 04:44:12;;;;;;;;;43.00;38.50;;;;;;;;5096579;28;28321;-83
2023/06/29 04:46:38;;;;;;;;;43.75;36.25;;;;;;;;5098217;27;28484;-83
2023/06/29 04:49:06;;;;;;;;;42.25;36.75;;;;;;;;5096541;28;28354;-83
2023/06/29 04:51:32;;;;;;;;;52.50;41.00;;;;;;;;5097926;27;29322;-83
2023/06/29 04:53:58;;;;;;;;;39.50;36.25;;;;;;;;5097445;27;28415;-83
2023/06/29 04:56:23;;;;;;;;;30.50;30.50;;;;;;;;5098014;27;28400;-83
2023/06/29 04:58:48;;;;;;;;;35.00;34.00;;;;;;;;5097821;27;28344;-83
2023/06/29 05:01:13;;;;;;;;;39.50;34.75;;;;;;;;5097831;27;29280;-83
2023/06/29 05:03:38;;;;;;;;;37.50;34.50;;;;;;;;5097775;27;28339;-83
2023/06/29 05:06:04;;;;;;;;;38.50;36.75;;;;;;;;5097939;28;28415;-83
2023/06/29 05:08:30;;;;;;;;;36.33;34.33;;;;;;;;5097494;28;28500;-83
2023/06/29 05:10:55;;;;;;;;;38.25;35.75;;;;;;;;5097586;28;28427;-83
2023/06/29 05:13:20;;;;;;;;;38.67;34.00;;;;;;;;5097649;28;28337;-83
2023/06/29 05:15:47;;;;;;;;;39.25;36.75;;;;;;;;5097931;28;28440;-83
2023/06/29 05:18:13;;;;;;;;;43.25;37.00;;;;;;;;5097695;28;28300;-83
2023/06/29 05:20:38;;;;;;;;;40.50;36.75;;;;;;;;5097379;27;28678;-83
2023/06/29 05:23:03;;;;;;;;;41.75;37.25;;;;;;;;5097486;27;28304;-83
2023/06/29 05:25:28;;;;;;;;;39.00;36.67;;;;;;;;5097653;27;28251;-83
2023/06/29 05:27:54;;;;;;;;;33.50;30.00;;;;;;;;5097563;27;28246;-83
2023/06/29 05:30:19;;;;;;;;;31.33;30.33;;;;;;;;5097255;28;28413;-83
2023/06/29 05:32:44;;;;;;;;;36.00;32.00;;;;;;;;5097633;28;28486;-83
2023/06/29 05:35:09;;;;;;;;;39.00;34.33;;;;;;;;5096017;28;28649;-83
2023/06/29 05:37:34;;;;;;;;;33.67;32.33;;;;;;;;5097636;27;28331;-83
2023/06/29 05:40:00;;;;;;;;;39.75;37.00;;;;;;;;5095133;28;30016;-83
2023/06/29 05:42:26;;;;;;;;;35.67;33.67;;;;;;;;5097453;28;28350;-83
2023/06/29 05:44:52;;;;;;;;;34.33;33.33;;;;;;;;5097173;27;28448;-83
2023/06/29 05:47:18;;;;;;;;;35.33;33.67;;;;;;;;5097543;27;28345;-83
2023/06/29 05:49:44;;;;;;;;;31.67;31.00;;;;;;;;5097008;28;28475;-83
2023/06/29 05:52:09;;;;;;;;;32.00;28.67;;;;;;;;5097149;27;28337;-83
2023/06/29 05:54:34;;;;;;;;;30.33;30.33;;;;;;;;5096725;28;28522;-83
2023/06/29 05:56:59;;;;;;;;;23.33;23.33;;;;;;;;5097273;28;28555;-83
2023/06/29 05:59:25;;;;;;;;;32.33;30.67;;;;;;;;5097176;27;28497;-83
2023/06/29 06:01:50;;;;;;;;;26.67;26.67;;;;;;;;5100705;27;28340;-83
2023/06/29 06:04:15;;;;;;;;;32.00;31.00;;;;;;;;5100619;27;28340;-83
2023/06/29 06:06:40;;;;;;;;;12.00;5.67;;;;;;;;5099613;28;28599;-83
2023/06/29 06:09:06;;;;;;;;;34.33;33.00;;;;;;;;5099924;27;29644;-83
2023/06/29 06:11:31;;;;;;;;;28.33;28.33;;;;;;;;5100778;27;28364;-83
2023/06/29 06:13:57;;;;;;;;;21.33;21.33;;;;;;;;5100574;27;28724;-83
2023/06/29 06:16:22;;;;;;;;;29.67;27.00;;;;;;;;5100681;27;28765;-83
2023/06/29 06:18:47;;;;;;;;;24.00;24.00;;;;;;;;5100178;27;29277;-83
2023/06/29 06:21:12;;;;;;;;;30.67;24.67;;;;;;;;5100402;27;28310;-83
2023/06/29 06:23:37;;;;;;;;;28.67;25.00;;;;;;;;5099974;27;28438;-83
2023/06/29 06:26:03;;;;;;;;;33.67;30.00;;;;;;;;5100675;27;28276;-83
2023/06/29 06:28:28;;;;;;;;;24.00;24.00;;;;;;;;5100097;27;28486;-83
2023/06/29 06:30:53;;;;;;;;;32.00;27.33;;;;;;;;5100329;27;28356;-83
2023/06/29 06:33:18;;;;;;;;;30.00;28.67;;;;;;;;5098850;28;28491;-83
2023/06/29 06:35:44;;;;;;;;;28.33;28.33;;;;;;;;5100342;27;28639;-83
2023/06/29 06:38:09;;;;;;;;;34.00;34.00;;;;;;;;5099826;27;28406;-83
2023/06/29 06:40:34;;;;;;;;;34.33;31.67;;;;;;;;5099382;27;28308;-83
2023/06/29 06:43:00;;;;;;;;;30.00;27.67;;;;;;;;5100113;28;28293;-83
2023/06/29 06:45:25;;;;;;;;;29.00;28.00;;;;;;;;5100286;27;28411;-83
2023/06/29 06:47:50;;;;;;;;;26.67;25.00;;;;;;;;5099878;27;28288;-83
2023/06/29 06:50:15;;;;;;;;;27.33;27.33;;;;;;;;5100042;28;28246;-83
2023/06/29 06:52:40;;;;;;;;;30.00;28.00;;;;;;;;5098677;28;28252;-84
2023/06/29 06:55:06;;;;;;;;;25.33;25.33;;;;;;;;5098384;28;28598;-83
2023/06/29 06:57:32;;;;;;;;;27.33;25.67;;;;;;;;5099646;27;28371;-83
2023/06/29 06:59:57;;;;;;;;;27.67;25.33;;;;;;;;5099917;27;28308;-83
2023/06/29 07:02:22;;;;;;;;;25.00;25.00;;;;;;;;5099697;27;28479;-83
2023/06/29 07:04:47;;;;;;;;;26.67;24.67;;;;;;;;5099855;27;28419;-83
2023/06/29 07:07:13;;;;;;;;;25.33;25.33;;;;;;;;5099701;27;28451;-84
2023/06/29 07:09:38;;;;;;;;;29.00;28.33;;;;;;;;5097827;28;28407;-83
2023/06/29 07:12:04;;;;;;;;;25.00;24.00;;;;;;;;5099512;28;28474;-83
2023/06/29 07:14:29;;;;;;;;;30.33;26.33;;;;;;;;5098350;28;28470;-83
2023/06/29 07:16:55;;;;;;;;;25.67;25.00;;;;;;;;5097981;28;29929;-84
2023/06/29 07:19:21;;;;;;;;;26.33;26.33;;;;;;;;5098127;28;28322;-83
2023/06/29 07:21:46;;;;;;;;;24.00;24.00;;;;;;;;5099401;28;28558;-83
2023/06/29 07:24:11;;;;;;;;;25.00;24.00;;;;;;;;5099132;28;28325;-83
2023/06/29 07:26:37;;;;;;;;;28.33;27.00;;;;;;;;5099148;28;29463;-84
2023/06/29 07:29:05;;;;;;;;;30.67;29.00;;;;;;;;5097841;27;28819;-83
2023/06/29 07:31:31;;;;;;;;;22.00;21.00;;;;;;;;5099300;28;28320;-83
2023/06/29 07:33:56;;;;;;;;;27.33;25.00;;;;;;;;5098199;28;28371;-83
2023/06/29 07:36:22;;;;;;;;;26.33;26.33;;;;;;;;5097766;28;28556;-83
2023/06/29 07:38:47;;;;;;;;;26.33;25.33;;;;;;;;5098515;28;28515;-83
2023/06/29 07:41:13;;;;;;;;;33.33;31.00;;;;;;;;5099146;28;28336;-83
2023/06/29 07:43:45;;;;;;;;;26.33;26.33;;;;;;;;5099159;27;28376;-83
2023/06/29 07:46:10;;;;;;;;;35.33;30.33;;;;;;;;5099172;27;28276;-83
2023/06/29 07:48:36;;;;;;;;;29.00;28.67;;;;;;;;5099091;27;28242;-83
2023/06/29 07:51:03;;;;;;;;;28.00;25.33;;;;;;;;5099111;27;28253;-83
2023/06/29 07:53:28;;;;;;;;;30.33;26.00;;;;;;;;5097536;28;28601;-83
2023/06/29 07:55:54;;;;;;;;;28.33;26.67;;;;;;;;5098682;27;29231;-83
2023/06/29 07:58:19;;;;;;;;;28.33;26.33;;;;;;;;5098758;27;28468;-84
2023/06/29 08:00:44;;;;;;;;;23.67;22.67;;;;;;;;5098742;27;28479;-84
2023/06/29 08:03:10;;;;;;;;;30.00;30.00;;;;;;;;5099061;28;28533;-84
2023/06/29 08:05:35;;;;;;;;;24.33;23.67;;;;;;;;5097239;28;29622;-84
2023/06/29 08:08:00;;;;;;;;;31.33;30.67;;;;;;;;5097069;28;29368;-84
2023/06/29 08:10:25;;;;;;;;;25.00;25.00;;;;;;;;5098456;28;28372;-83
2023/06/29 08:12:51;;;;;;;;;25.00;25.00;;;;;;;;5098845;28;28387;-84
2023/06/29 08:15:16;;;;;;;;;25.00;24.00;;;;;;;;5094590;28;29333;-83
2023/06/29 08:17:41;;;;;;;;;21.67;21.67;;;;;;;;5087386;28;28396;-84
2023/06/29 08:20:10;;;;;;;;;25.67;25.33;;;;;;;;5098582;28;28294;-83
2023/06/29 08:22:35;;;;;;;;;31.00;30.33;;;;;;;;5098130;27;28249;-84
2023/06/29 08:25:00;;;;;;;;;29.67;26.33;;;;;;;;5097627;28;28352;-84
2023/06/29 08:27:25;;;;;;;;;27.00;27.00;;;;;;;;5098591;28;28466;-84
2023/06/29 08:29:52;;;;;;;;;20.33;20.33;;;;;;;;5097151;27;28241;-84
2023/06/29 08:32:17;;;;;;;;;29.33;27.67;;;;;;;;5097149;28;28588;-84
2023/06/29 08:34:43;;;;;;;;;24.50;24.50;;;;;;;;5098190;28;29455;-84
2023/06/29 08:37:08;;;;;;;;;27.33;25.33;;;;;;;;5098355;28;28309;-84
2023/06/29 08:39:33;;;;;;;;;25.00;24.00;;;;;;;;5097559;28;28379;-84
2023/06/29 08:41:58;;;;;;;;;25.00;24.33;;;;;;;;5098361;28;28506;-84
2023/06/29 08:44:24;;;;;;;;;25.67;25.33;;;;;;;;5096711;28;29875;-84
2023/06/29 08:46:50;;;;;;;;;26.33;26.00;;;;;;;;5131289;27;29129;-84
2023/06/29 08:49:15;;;;;;;;;29.67;29.33;;;;;;;;5098047;27;28316;-84
2023/06/29 08:51:43;;;;;;;;;24.67;23.67;;;;;;;;5098245;27;28326;-84
2023/06/29 08:54:11;;;;;;;;;24.50;24.50;;;;;;;;5097523;27;28423;-83
2023/06/29 08:56:36;;;;;;;;;31.33;31.33;;;;;;;;5097971;28;28263;-84
2023/06/29 08:59:01;;;;;;;;;28.67;28.33;;;;;;;;5098074;27;28203;-84
2023/06/29 09:01:27;;;;;;;;;29.33;28.33;;;;;;;;5098004;27;28335;-83
2023/06/29 09:03:52;;;;;;;;;24.00;24.00;;;;;;;;5097752;27;29144;-83
2023/06/29 09:06:18;;;;;;;;;29.67;28.67;;;;;;;;5098025;27;28266;-84
2023/06/29 09:08:43;;;;;;;;;27.50;27.50;;;;;;;;5097364;27;28438;-84
2023/06/29 09:11:09;;;;;;;;;36.00;32.33;;;;;;;;5097863;27;28694;-84
2023/06/29 09:13:34;;;;;;;;;28.67;27.67;;;;;;;;5097771;27;29285;-83
2023/06/29 09:16:00;;;;;;;;;27.33;27.33;;;;;;;;5097809;27;28317;-83
2023/06/29 09:18:26;;;;;;;;;32.00;30.00;;;;;;;;5097450;27;28409;-83
2023/06/29 09:20:55;;;;;;;;;29.00;28.67;;;;;;;;5097824;28;28395;-84
2023/06/29 09:23:20;;;;;;;;;30.33;28.67;;;;;;;;5096992;28;29328;-84
2023/06/29 09:25:48;;;;;;;;;30.33;28.33;;;;;;;;5097301;28;28329;-84
2023/06/29 09:28:13;;;;;;;;;28.67;27.67;;;;;;;;5097594;28;28542;-83
2023/06/29 09:30:39;;;;;;;;;26.67;25.67;;;;;;;;5097473;28;28503;-84
2023/06/29 09:33:06;;;;;;;;;25.33;25.00;;;;;;;;5097465;28;29411;-83
2023/06/29 09:35:31;;;;;;;;;25.67;25.67;;;;;;;;5099526;28;28421;-84
2023/06/29 09:37:56;;;;;;;;;20.33;20.33;;;;;;;;5100906;28;28389;-84
2023/06/29 09:40:22;;;;;;;;;25.33;25.00;;;;;;;;5100704;27;28454;-84
2023/06/29 09:42:47;;;;;;;;;24.33;23.67;;;;;;;;5101011;28;28583;-84
2023/06/29 09:45:14;;;;;;;;;22.67;22.67;;;;;;;;5100983;27;28452;-84
2023/06/29 09:47:42;;;;;;;;;27.00;26.00;;;;;;;;5100926;27;28515;-84
2023/06/29 09:50:17;;;;;;;;;29.33;27.33;;;;;;;;5100944;27;28340;-84
2023/06/29 09:52:46;;;;;;;;;17.67;17.33;;;;;;;;5100404;27;28367;-84
2023/06/29 09:55:11;;;;;;;;;25.00;24.67;;;;;;;;5100636;27;28398;-84
2023/06/29 09:57:39;;;;;;;;;22.00;20.00;;;;;;;;5100648;27;28471;-84
2023/06/29 10:00:09;;;;;;;;;27.33;27.00;;;;;;;;5100924;27;28417;-84
2023/06/29 10:02:34;;;;;;;;;27.00;26.33;;;;;;;;5100504;27;29263;-84
2023/06/29 10:05:00;;;;;;;;;26.67;25.67;;;;;;;;5100527;28;28444;-84
2023/06/29 10:07:25;;;;;;;;;28.00;28.00;;;;;;;;5100740;27;28288;-84
2023/06/29 10:09:51;;;;;;;;;26.67;26.67;;;;;;;;5100328;27;28580;-84
2023/06/29 10:12:19;;;;;;;;;16.00;16.00;;;;;;;;5100467;27;28399;-84
2023/06/29 10:14:45;;;;;;;;;24.33;24.33;;;;;;;;5100516;27;28481;-84
2023/06/29 10:17:24;;;;;;;;;24.00;24.00;;;;;;;;5100319;28;28239;-84
2023/06/29 10:19:50;;;;;;;;;28.00;27.33;;;;;;;;5099160;28;28567;-84
2023/06/29 10:22:17;;;;;;;;;19.33;19.33;;;;;;;;5098801;28;30139;-84
2023/06/29 10:24:45;;;;;;;;;26.67;26.67;;;;;;;;5099818;27;28679;-84
2023/06/29 10:27:12;;;;;;;;;21.67;20.67;;;;;;;;5100155;27;28460;-83
2023/06/29 10:29:47;;;;;;;;;21.00;21.00;;;;;;;;5100488;28;28270;-83
2023/06/29 10:32:30;;;;;;;;;23.00;21.67;;;;;;;;5098885;28;30287;-83
2023/06/29 10:35:00;;;;;;;;;25.00;25.00;;;;;;;;5099938;27;28247;-83
2023/06/29 10:37:29;;;;;;;;;21.67;21.67;;;;;;;;5100211;27;28341;-83
2023/06/29 10:39:56;;;;;;;;;21.33;19.67;;;;;;;;5099539;27;28537;-83
2023/06/29 10:42:21;;;;;;;;;19.00;19.00;;;;;;;;5100067;28;28729;-83
2023/06/29 10:44:47;;;;;;;;;22.00;21.00;;;;;;;;5100039;27;28456;-83
2023/06/29 10:47:26;;;;;;;;;17.00;17.00;;;;;;;;5099867;27;28296;-83
2023/06/29 10:50:14;;;;;;;;;20.33;20.00;;;;;;;;5100111;27;28307;-84
2023/06/29 10:52:43;;;;;;;;;17.67;16.67;;;;;;;;5098160;28;28833;-84
2023/06/29 10:55:14;;;;;;;;;22.00;22.00;;;;;;;;5099827;28;28565;-84
2023/06/29 10:57:41;;;;;;;;;14.00;14.00;;;;;;;;5099711;28;28242;-84
2023/06/29 11:00:07;;;;;;;;;18.00;18.00;;;;;;;;5099880;28;28252;-84
2023/06/29 11:02:33;;;;;;;;;16.00;16.00;;;;;;;;5099467;27;28501;-84
2023/06/29 11:04:58;;;;;;;;;16.00;14.67;;;;;;;;5099872;27;28461;-84
2023/06/29 11:07:25;;;;;;;;;12.00;12.00;;;;;;;;5099571;27;28522;-84
2023/06/29 11:09:58;;;;;;;;;12.33;12.33;;;;;;;;5099466;27;28326;-84
2023/06/29 11:12:24;;;;;;;;;13.00;13.00;;;;;;;;5099443;27;28394;-84
2023/06/29 11:14:50;;;;;;;;;14.33;13.33;;;;;;;;5099670;27;28463;-84
2023/06/29 11:17:17;;;;;;;;;11.00;11.00;;;;;;;;5099529;27;28383;-84
2023/06/29 11:19:43;;;;;;;;;15.67;14.67;;;;;;;;5099704;28;28406;-84
2023/06/29 11:22:08;;;;;;;;;14.00;14.00;;;;;;;;5099172;27;28318;-84
2023/06/29 11:24:35;;;;;;;;;12.67;12.67;;;;;;;;5098976;27;28234;-84
2023/06/29 11:27:01;;;;;;;;;11.00;11.00;;;;;;;;5098041;28;28383;-83
2023/06/29 11:29:27;;;;;;;;;11.67;11.67;;;;;;;;5099508;27;28356;-83
2023/06/29 11:31:52;;;;;;;;;12.00;12.00;;;;;;;;5099153;27;28320;-83
2023/06/29 11:34:17;;;;;;;;;7.67;7.67;;;;;;;;5098068;27;28352;-84
2023/06/29 11:36:42;;;;;;;;;12.33;12.33;;;;;;;;5099302;27;28285;-84
2023/06/29 11:39:12;;;;;;;;;12.33;11.33;;;;;;;;5097346;27;28653;-84
2023/06/29 11:41:38;;;;;;;;;12.00;12.00;;;;;;;;5098932;27;28609;-84
2023/06/29 11:44:03;;;;;;;;;12.00;12.00;;;;;;;;5097721;28;28254;-83
2023/06/29 11:46:33;;;;;;;;;8.67;8.67;;;;;;;;5097794;28;28336;-84
2023/06/29 11:48:59;;;;;;;;;7.00;7.00;;;;;;;;5099206;28;28496;-83
2023/06/29 11:51:28;;;;;;;;;8.00;8.00;;;;;;;;5098939;27;28565;-84
2023/06/29 11:53:56;;;;;;;;;9.33;9.33;;;;;;;;5098480;27;28245;-84
2023/06/29 11:56:33;;;;;;;;;8.00;8.00;;;;;;;;5099123;27;28281;-84
2023/06/29 11:59:03;;;;;;;;;11.67;11.67;;;;;;;;5093172;28;28445;-84
2023/06/29 12:01:31;;;;;;;;;11.00;11.00;;;;;;;;5098868;28;29300;-83
2023/06/29 12:03:56;;;;;;;;;9.33;9.33;;;;;;;;5098579;27;28325;-84
2023/06/29 12:06:21;;;;;;;;;13.33;12.33;;;;;;;;5098900;27;28419;-84
2023/06/29 12:08:50;;;;;;;;;12.67;12.33;;;;;;;;5098380;27;28218;-84
2023/06/29 12:11:16;;;;;;;;;10.00;10.00;;;;;;;;5098781;27;28454;-84
2023/06/29 12:14:00;;;;;;;;;11.67;11.33;;;;;;;;5098524;27;28386;-84
2023/06/29 12:16:26;;;;;;;;;12.67;12.67;;;;;;;;5098926;27;28439;-84
2023/06/29 12:18:51;;;;;;;;;9.00;9.00;;;;;;;;5098419;27;28333;-84
2023/06/29 12:21:17;;;;;;;;;9.00;9.00;;;;;;;;5098646;27;28423;-84
2023/06/29 12:23:42;;;;;;;;;9.67;8.00;;;;;;;;5097827;28;28440;-84
2023/06/29 12:26:08;;;;;;;;;7.00;7.00;;;;;;;;5098690;27;28427;-84
2023/06/29 12:28:33;;;;;;;;;6.00;6.00;;;;;;;;5097178;28;28456;-84
2023/06/29 12:30:59;;;;;;;;;7.00;7.00;;;;;;;;5098508;27;28360;-84
2023/06/29 12:33:24;;;;;;;;;8.00;8.00;;;;;;;;5098239;27;28223;-84
2023/06/29 12:35:49;;;;;;;;;7.33;7.33;;;;;;;;5097103;28;28391;-84
2023/06/29 12:38:15;;;;;;;;;6.67;6.67;;;;;;;;5097966;27;28248;-84
2023/06/29 12:40:40;;;;;;;;;10.00;10.00;;;;;;;;5097634;28;28320;-84
2023/06/29 12:43:05;;;;;;;;;9.33;9.33;;;;;;;;5098091;28;28371;-83
2023/06/29 12:45:32;;;;;;;;;6.33;6.33;;;;;;;;5098145;28;28247;-83
2023/06/29 12:47:57;;;;;;;;;7.33;7.33;;;;;;;;5096895;28;28676;-84
2023/06/29 12:50:22;;;;;;;;;5.00;5.00;;;;;;;;5098017;27;29166;-84
2023/06/29 12:52:48;;;;;;;;;7.00;7.00;;;;;;;;5097753;27;28218;-83
2023/06/29 12:55:14;;;;;;;;;6.00;6.00;;;;;;;;5098129;27;28294;-84
2023/06/29 12:57:41;;;;;;;;;6.00;6.00;;;;;;;;5098011;27;28502;-84
2023/06/29 13:00:07;;;;;;;;;6.00;6.00;;;;;;;;5097845;27;28415;-84
2023/06/29 13:02:33;;;;;;;;;5.00;5.00;;;;;;;;5130904;27;28527;-83
2023/06/29 13:04:58;;;;;;;;;5.00;5.00;;;;;;;;5097965;27;28369;-83
2023/06/29 13:07:23;;;;;;;;;7.00;7.00;;;;;;;;5098002;27;28371;-83
2023/06/29 13:09:49;;;;;;;;;7.00;7.00;;;;;;;;5097312;27;28484;-83
2023/06/29 13:12:14;;;;;;;;;8.67;8.67;;;;;;;;5096380;28;28709;-83
2023/06/29 13:14:40;;;;;;;;;7.00;7.00;;;;;;;;5097914;28;28218;-84
2023/06/29 13:17:05;;;;;;;;;9.33;9.33;;;;;;;;5097702;28;28917;-83
2023/06/29 13:19:32;;;;;;;;;13.33;12.33;;;;;;;;5097653;27;28291;-84
2023/06/29 13:21:57;;;;;;;;;14.00;14.00;;;;;;;;5097554;28;28305;-84
2023/06/29 13:24:22;;;;;;;;;9.33;9.33;;;;;;;;5097245;27;28460;-83
2023/06/29 13:26:47;;;;;;;;;33.75;32.50;;;;;;;;5097532;27;28655;-83
2023/06/29 13:29:13;;;;;;;;;34.33;33.67;;;;;;;;5096279;28;29441;-84
2023/06/29 13:31:38;;;;;;;;;13.33;13.33;;;;;;;;5097418;27;28380;-83
2023/06/29 13:34:04;;;;;;;;;11.00;11.00;;;;;;;;5097788;27;28435;-83
2023/06/29 13:36:29;;;;;;;;;16.33;13.33;;;;;;;;5097387;27;28329;-83
2023/06/29 13:38:54;;;;;;;;;11.67;10.00;;;;;;;;5096764;27;28573;-84
2023/06/29 13:41:32;;;;;;;;;11.33;10.67;;;;;;;;5097211;27;28597;-84
2023/06/29 13:43:57;;;;;;;;;7.67;7.67;;;;;;;;5097538;27;28427;-83
2023/06/29 13:46:23;;;;;;;;;10.67;9.33;;;;;;;;5097250;28;28466;-83
2023/06/29 13:48:48;;;;;;;;;7.00;7.00;;;;;;;;5097405;27;28436;-83
2023/06/29 13:51:14;;;;;;;;;6.00;6.00;;;;;;;;5097189;28;28403;-84
2023/06/29 13:53:39;;;;;;;;;4.33;4.33;;;;;;;;5096943;28;28314;-84
2023/06/29 13:56:04;;;;;;;;;7.00;7.00;;;;;;;;5097259;28;28378;-83
2023/06/29 13:58:29;;;;;;;;;6.67;6.67;;;;;;;;5097047;28;28668;-83
2023/06/29 14:00:55;;;;;;;;;5.00;5.00;;;;;;;;5096996;27;28498;-84
2023/06/29 14:03:20;;;;;;;;;5.00;5.00;;;;;;;;5097467;27;28276;-83
2023/06/29 14:05:46;;;;;;;;;4.33;4.33;;;;;;;;5097036;27;28636;-84
2023/06/29 14:08:11;;;;;;;;;4.33;4.33;;;;;;;;5096997;27;28335;-84
2023/06/29 14:10:36;;;;;;;;;5.00;5.00;;;;;;;;5095405;28;28493;-83
2023/06/29 14:13:02;;;;;;;;;3.00;3.00;;;;;;;;5097208;27;28652;-84
2023/06/29 14:15:27;;;;;;;;;5.00;5.00;;;;;;;;5097065;27;28569;-83